Powell, Texas
Current Conditions -  °F | °C
As of 4:21 AM on Wednesday 22 Oct 2014 (Local Time) from KCRS Reporting Station
Haze Haze  
Wind Chill: 63°   Ceiling: Unl
Heat Index: 63°   Visibility: 2.5mi
Dew Point: 60°   Wind: 0mph
Humidity: 90%   Direction: NA
Pressure: 30.08"   Gusts: NA
Location:  32.12°N, 96.32°W
Report Text: KCRS 220921Z AUTO 00000KT 2 1/2SM BR CLR 17/16 A3008 RMK AO2 T01720156
Loading
Personal Weather Stations






























Interactive Weather Map
Tropical Storm Tracking
New forecast layout! Learn more

10-Day Weather Forecast

Advertisements
Track Severe Weather on mobile